createdAt,value
2022-07-26T00:02:05.335Z,100061.00
2022-07-26T00:04:33.654Z,100063.00
2022-07-26T00:07:01.721Z,100070.00
2022-07-26T00:09:29.790Z,100066.00
2022-07-26T00:11:57.697Z,100070.00
2022-07-26T00:14:26.111Z,100074.00
2022-07-26T00:16:54.290Z,100078.00
2022-07-26T00:19:22.471Z,100081.00
2022-07-26T00:22:10.528Z,100085.00
2022-07-26T00:24:39.756Z,100079.00
2022-07-26T00:27:08.137Z,100077.00
2022-07-26T00:29:36.335Z,100076.00
2022-07-26T00:32:04.936Z,100090.00
2022-07-26T00:34:33.417Z,100079.00
2022-07-26T00:37:01.690Z,100085.00
2022-07-26T00:39:32.817Z,100077.00
2022-07-26T00:42:00.855Z,100087.00
2022-07-26T00:44:40.039Z,100074.00
2022-07-26T00:47:08.519Z,100089.00
2022-07-26T00:49:36.785Z,100092.00
2022-07-26T00:52:07.293Z,100083.00
2022-07-26T00:54:35.596Z,100088.00
2022-07-26T00:57:04.126Z,100093.00
2022-07-26T00:59:32.108Z,100085.00
2022-07-26T01:02:00.290Z,100088.00
2022-07-26T01:04:28.815Z,100087.00
2022-07-26T01:06:57.080Z,100080.00
2022-07-26T01:09:25.642Z,100079.00
2022-07-26T01:11:53.923Z,100090.00
2022-07-26T01:14:23.105Z,100092.00
2022-07-26T01:16:51.996Z,100089.00
2022-07-26T01:19:20.889Z,100083.00
2022-07-26T01:21:50.111Z,100090.00
2022-07-26T01:24:18.770Z,100092.00
2022-07-26T01:26:47.350Z,100090.00
2022-07-26T01:29:15.406Z,100086.00
2022-07-26T01:31:43.603Z,100089.00
2022-07-26T01:34:11.863Z,100089.00
2022-07-26T01:36:40.042Z,100089.00
2022-07-26T01:39:08.294Z,100077.00
2022-07-26T01:41:37.549Z,100082.00
2022-07-26T01:44:08.214Z,100081.00
2022-07-26T01:46:36.807Z,100089.00
2022-07-26T01:49:05.601Z,100090.00
2022-07-26T01:51:33.564Z,100097.00
2022-07-26T01:54:02.941Z,100094.00
2022-07-26T01:56:31.147Z,100099.00
2022-07-26T01:58:59.590Z,100092.00
2022-07-26T02:01:39.209Z,100104.00
2022-07-26T02:04:28.995Z,100099.00
2022-07-26T02:06:56.914Z,100095.00
2022-07-26T02:09:25.875Z,100104.00
2022-07-26T02:11:55.898Z,100101.00
2022-07-26T02:14:25.739Z,100100.00
2022-07-26T02:17:00.242Z,100092.00
2022-07-26T02:19:29.847Z,100108.00
2022-07-26T02:21:58.128Z,100104.00
2022-07-26T02:24:29.175Z,100091.00
2022-07-26T02:26:58.180Z,100090.00
2022-07-26T02:29:26.775Z,100091.00
2022-07-26T02:31:55.496Z,100104.00
2022-07-26T02:34:23.889Z,100101.00
2022-07-26T02:36:52.074Z,100107.00
2022-07-26T02:39:20.183Z,100110.00
2022-07-26T02:41:49.357Z,100115.00
2022-07-26T02:44:17.405Z,100112.00
2022-07-26T02:46:45.379Z,100111.00
2022-07-26T02:49:13.575Z,100110.00
2022-07-26T02:51:41.683Z,100107.00
2022-07-26T02:54:10.065Z,100115.00
2022-07-26T02:56:38.759Z,100116.00
2022-07-26T02:59:07.673Z,100120.00
2022-07-26T03:01:35.641Z,100113.00
2022-07-26T03:04:04.008Z,100114.00
2022-07-26T03:06:31.910Z,100118.00
2022-07-26T03:09:00.675Z,100115.00
2022-07-26T03:11:28.448Z,100120.00
2022-07-26T03:13:56.260Z,100122.00
2022-07-26T03:16:29.006Z,100121.00
2022-07-26T03:18:57.936Z,100116.00
2022-07-26T03:21:25.971Z,100114.00
2022-07-26T03:23:54.006Z,100117.00
2022-07-26T03:26:22.564Z,100120.00
2022-07-26T03:28:50.537Z,100115.00
2022-07-26T03:31:18.600Z,100121.00
2022-07-26T03:33:46.675Z,100118.00
2022-07-26T03:36:15.418Z,100130.00
2022-07-26T03:38:43.785Z,100127.00
2022-07-26T03:41:13.622Z,100127.00
2022-07-26T03:43:42.314Z,100129.00
2022-07-26T03:46:10.467Z,100126.00
2022-07-26T03:48:38.527Z,100129.00
2022-07-26T03:51:06.724Z,100129.00
2022-07-26T03:53:34.885Z,100122.00
2022-07-26T03:56:21.509Z,100123.00
2022-07-26T03:58:49.385Z,100125.00
2022-07-26T04:01:17.449Z,100120.00
2022-07-26T04:03:47.689Z,100122.00
2022-07-26T04:06:16.625Z,100119.00
2022-07-26T04:08:45.639Z,100120.00
2022-07-26T04:11:13.998Z,100118.00
2022-07-26T04:13:42.064Z,100115.00
2022-07-26T04:16:10.206Z,100115.00
2022-07-26T04:18:38.262Z,100112.00
2022-07-26T04:21:06.443Z,100121.00
2022-07-26T04:23:34.411Z,100106.00
2022-07-26T04:26:02.397Z,100119.00
2022-07-26T04:28:30.436Z,100117.00
2022-07-26T04:30:59.038Z,100111.00
2022-07-26T04:33:27.401Z,100110.00
2022-07-26T04:35:55.534Z,100118.00
2022-07-26T04:38:23.846Z,100123.00
2022-07-26T04:40:52.604Z,100126.00
2022-07-26T04:43:20.760Z,100125.00
2022-07-26T04:45:49.208Z,100116.00
2022-07-26T04:48:17.772Z,100116.00
2022-07-26T04:50:45.771Z,100119.00
2022-07-26T04:53:13.814Z,100118.00
2022-07-26T04:55:42.335Z,100130.00
2022-07-26T04:58:10.787Z,100121.00
2022-07-26T05:01:02.870Z,100123.00
2022-07-26T05:03:26.706Z,100121.00
2022-07-26T05:05:54.570Z,100118.00
2022-07-26T05:08:22.624Z,100127.00
2022-07-26T05:10:55.164Z,100121.00
2022-07-26T05:13:29.769Z,100124.00
2022-07-26T05:15:59.916Z,100123.00
2022-07-26T05:18:31.493Z,100128.00
2022-07-26T05:20:59.980Z,100123.00
2022-07-26T05:23:28.249Z,100131.00
2022-07-26T05:25:56.603Z,100128.00
2022-07-26T05:28:24.761Z,100123.00
2022-07-26T05:30:52.867Z,100132.00
2022-07-26T05:33:20.966Z,100136.00
2022-07-26T05:35:48.992Z,100142.00
2022-07-26T05:38:16.961Z,100141.00
2022-07-26T05:40:48.663Z,100140.00
2022-07-26T05:43:19.069Z,100139.00
2022-07-26T05:45:47.084Z,100135.00
2022-07-26T05:48:15.057Z,100137.00
2022-07-26T05:50:42.979Z,100140.00
2022-07-26T05:53:11.011Z,100137.00
2022-07-26T05:55:38.995Z,100139.00
2022-07-26T05:58:07.057Z,100140.00
2022-07-26T06:00:35.375Z,100132.00
2022-07-26T06:03:26.154Z,100136.00
2022-07-26T06:05:56.983Z,100137.00
2022-07-26T06:08:26.502Z,100138.00
2022-07-26T06:10:55.134Z,100146.00
2022-07-26T06:13:23.412Z,100141.00
2022-07-26T06:15:51.710Z,100147.00
2022-07-26T06:18:19.684Z,100144.00
2022-07-26T06:20:48.599Z,100143.00
2022-07-26T06:23:16.779Z,100146.00
2022-07-26T06:25:44.864Z,100145.00
2022-07-26T06:28:12.952Z,100144.00
2022-07-26T06:30:41.411Z,100142.00
2022-07-26T06:33:09.825Z,100147.00
2022-07-26T06:35:39.351Z,100152.00
2022-07-26T06:38:08.221Z,100164.00
2022-07-26T06:40:36.829Z,100162.00
2022-07-26T06:43:05.004Z,100158.00
2022-07-26T06:45:34.287Z,100159.00
2022-07-26T06:48:02.507Z,100156.00
2022-07-26T06:50:30.505Z,100159.00
2022-07-26T06:52:58.383Z,100167.00
2022-07-26T06:55:26.316Z,100167.00
2022-07-26T06:57:54.157Z,100159.00
2022-07-26T07:00:22.156Z,100170.00
2022-07-26T07:02:50.206Z,100171.00
2022-07-26T07:05:18.137Z,100171.00
2022-07-26T07:07:46.424Z,100173.00
2022-07-26T07:10:14.363Z,100168.00
2022-07-26T07:12:44.990Z,100179.00
2022-07-26T07:15:13.607Z,100179.00
2022-07-26T07:17:41.535Z,100183.00
2022-07-26T07:20:10.076Z,100194.00
2022-07-26T07:22:37.927Z,100188.00
2022-07-26T07:25:06.347Z,100193.00
2022-07-26T07:27:34.594Z,100188.00
2022-07-26T07:30:02.721Z,100193.00
2022-07-26T07:32:32.299Z,100187.00
2022-07-26T07:35:00.444Z,100188.00
2022-07-26T07:37:28.709Z,100191.00
2022-07-26T07:40:16.649Z,100203.00
2022-07-26T07:42:45.701Z,100196.00
2022-07-26T07:45:13.779Z,100203.00
2022-07-26T07:47:41.876Z,100202.00
2022-07-26T07:50:10.055Z,100207.00
2022-07-26T07:52:39.186Z,100205.00
2022-07-26T07:55:40.206Z,100211.00
2022-07-26T07:57:57.071Z,100209.00
2022-07-26T08:00:27.099Z,100203.00
2022-07-26T08:02:55.838Z,100196.00
2022-07-26T08:05:23.744Z,100204.00
2022-07-26T08:07:52.972Z,100208.00
2022-07-26T08:10:21.205Z,100209.00
2022-07-26T08:12:51.351Z,100209.00
2022-07-26T08:15:21.224Z,100202.00
2022-07-26T08:17:54.812Z,100208.00
2022-07-26T08:20:23.785Z,100201.00
2022-07-26T08:22:53.398Z,100206.00
2022-07-26T08:25:21.541Z,100208.00
2022-07-26T08:28:03.262Z,100217.00
2022-07-26T08:30:32.873Z,100217.00
2022-07-26T08:33:01.209Z,100225.00
2022-07-26T08:35:32.233Z,100215.00
2022-07-26T08:38:00.652Z,100221.00
2022-07-26T08:40:29.557Z,100223.00
2022-07-26T08:42:58.183Z,100216.00
2022-07-26T08:45:27.841Z,100217.00
2022-07-26T08:48:16.860Z,100217.00
2022-07-26T08:50:44.404Z,100221.00
2022-07-26T08:53:13.368Z,100227.00
2022-07-26T08:58:29.825Z,100229.00
2022-07-26T09:01:06.779Z,100226.00
2022-07-26T09:03:38.206Z,100223.00
2022-07-26T09:06:20.815Z,100235.00
2022-07-26T09:08:51.350Z,100238.00
2022-07-26T09:11:25.561Z,100231.00
2022-07-26T09:14:00.946Z,100230.00
2022-07-26T09:16:29.599Z,100228.00
2022-07-26T09:19:19.475Z,100231.00
2022-07-26T09:21:47.542Z,100232.00
2022-07-26T09:24:31.611Z,100246.00
2022-07-26T09:27:01.200Z,100249.00
2022-07-26T09:29:30.199Z,100241.00
2022-07-26T09:32:24.653Z,100241.00
2022-07-26T09:34:58.814Z,100245.00
2022-07-26T09:37:41.326Z,100248.00
2022-07-26T09:40:11.691Z,100255.00
2022-07-26T09:42:59.169Z,100249.00
2022-07-26T09:45:28.920Z,100257.00
2022-07-26T09:47:56.879Z,100256.00
2022-07-26T09:50:28.305Z,100251.00
2022-07-26T09:53:10.747Z,100257.00
2022-07-26T09:55:56.825Z,100259.00
2022-07-26T09:58:25.340Z,100260.00
2022-07-26T10:00:53.479Z,100270.00
2022-07-26T10:03:25.640Z,100274.00
2022-07-26T10:05:54.173Z,100290.00
2022-07-26T10:08:22.293Z,100298.00
2022-07-26T10:11:05.996Z,100305.00
2022-07-26T10:13:34.340Z,100314.00
2022-07-26T10:16:03.155Z,100322.00
2022-07-26T10:18:40.704Z,100315.00
2022-07-26T10:21:18.978Z,100325.00
2022-07-26T10:23:48.794Z,100334.00
2022-07-26T10:26:36.632Z,100337.00
2022-07-26T10:29:21.913Z,100342.00
2022-07-26T10:31:56.660Z,100348.00
2022-07-26T10:34:32.246Z,100351.00
2022-07-26T10:37:02.724Z,100350.00
2022-07-26T10:39:30.809Z,100352.00
2022-07-26T10:42:01.187Z,100354.00
2022-07-26T10:44:42.699Z,100364.00
2022-07-26T10:47:11.559Z,100362.00
2022-07-26T10:49:45.765Z,100362.00
2022-07-26T10:52:19.607Z,100369.00
2022-07-26T10:55:08.175Z,100382.00
2022-07-26T10:57:41.672Z,100378.00
2022-07-26T11:00:13.196Z,100376.00
2022-07-26T11:02:43.962Z,100377.00
2022-07-26T11:05:14.867Z,100377.00
2022-07-26T11:07:49.135Z,100377.00
2022-07-26T11:10:17.494Z,100383.00
2022-07-26T11:12:45.612Z,100384.00
2022-07-26T11:15:20.330Z,100387.00
2022-07-26T11:17:48.343Z,100397.00
2022-07-26T11:20:29.652Z,100385.00
2022-07-26T11:22:58.002Z,100391.00
2022-07-26T11:25:26.087Z,100399.00
2022-07-26T11:28:07.347Z,100395.00
2022-07-26T11:30:36.214Z,100398.00
2022-07-26T11:33:05.698Z,100407.00
2022-07-26T11:35:33.711Z,100404.00
2022-07-26T11:38:11.833Z,100407.00
2022-07-26T11:40:44.571Z,100412.00
2022-07-26T11:43:12.746Z,100406.00
2022-07-26T11:45:40.715Z,100413.00
2022-07-26T11:48:08.928Z,100418.00
2022-07-26T11:50:36.975Z,100409.00
2022-07-26T11:53:22.392Z,100423.00
2022-07-26T11:55:50.350Z,100418.00
2022-07-26T11:58:18.169Z,100424.00
2022-07-26T12:00:46.153Z,100418.00
2022-07-26T12:03:14.511Z,100421.00
2022-07-26T12:05:42.518Z,100420.00
2022-07-26T12:08:11.223Z,100421.00
2022-07-26T12:10:39.178Z,100425.00
2022-07-26T12:13:15.237Z,100416.00
2022-07-26T12:15:51.163Z,100426.00
2022-07-26T12:18:32.994Z,100415.00
2022-07-26T12:21:09.570Z,100415.00
2022-07-26T12:23:55.963Z,100421.00
2022-07-26T12:26:25.871Z,100420.00
2022-07-26T12:28:55.058Z,100420.00
2022-07-26T12:31:34.445Z,100422.00
2022-07-26T12:34:02.760Z,100423.00
2022-07-26T12:36:35.357Z,100427.00
2022-07-26T12:39:03.674Z,100422.00
2022-07-26T12:41:38.894Z,100423.00
2022-07-26T12:44:08.992Z,100420.00
2022-07-26T12:46:37.461Z,100412.00
2022-07-26T12:49:05.898Z,100417.00
2022-07-26T12:51:33.996Z,100413.00
2022-07-26T12:54:02.264Z,100415.00
2022-07-26T12:56:30.272Z,100426.00
2022-07-26T12:59:03.980Z,100427.00
2022-07-26T13:01:33.015Z,100422.00
2022-07-26T13:04:01.147Z,100424.00
2022-07-26T13:06:33.122Z,100427.00
2022-07-26T13:09:01.334Z,100438.00
2022-07-26T13:11:29.305Z,100439.00
2022-07-26T13:13:57.738Z,100441.00
2022-07-26T13:16:25.799Z,100434.00
2022-07-26T13:18:53.727Z,100441.00
2022-07-26T13:21:21.943Z,100441.00
2022-07-26T13:23:49.957Z,100448.00
2022-07-26T13:26:18.170Z,100447.00
2022-07-26T13:28:49.581Z,100444.00
2022-07-26T13:31:18.470Z,100448.00
2022-07-26T13:33:46.594Z,100449.00
2022-07-26T13:36:14.596Z,100450.00
2022-07-26T13:38:43.212Z,100447.00
2022-07-26T13:41:11.229Z,100439.00
2022-07-26T13:43:39.395Z,100436.00
2022-07-26T13:46:07.693Z,100443.00
2022-07-26T13:48:35.952Z,100444.00
2022-07-26T13:51:03.894Z,100439.00
2022-07-26T13:53:31.855Z,100444.00
2022-07-26T13:55:59.804Z,100441.00
2022-07-26T13:58:27.710Z,100444.00
2022-07-26T14:00:55.766Z,100445.00
2022-07-26T14:03:24.040Z,100443.00
2022-07-26T14:05:52.178Z,100448.00
2022-07-26T14:08:20.173Z,100447.00
2022-07-26T14:10:48.193Z,100448.00
2022-07-26T14:13:16.255Z,100448.00
2022-07-26T14:15:44.263Z,100451.00
2022-07-26T14:18:14.492Z,100447.00
2022-07-26T14:20:43.320Z,100453.00
2022-07-26T14:23:11.459Z,100450.00
2022-07-26T14:25:39.397Z,100461.00
2022-07-26T14:28:07.285Z,100470.00
2022-07-26T14:30:35.855Z,100468.00
2022-07-26T14:33:05.213Z,100470.00
2022-07-26T14:35:33.169Z,100473.00
2022-07-26T14:38:01.145Z,100479.00
2022-07-26T14:40:29.155Z,100476.00
2022-07-26T14:42:57.148Z,100479.00
2022-07-26T14:45:25.222Z,100476.00
2022-07-26T14:47:53.112Z,100473.00
2022-07-26T14:50:23.579Z,100477.00
2022-07-26T14:52:51.502Z,100476.00
2022-07-26T14:55:25.065Z,100478.00
2022-07-26T14:57:53.638Z,100470.00
2022-07-26T15:00:21.815Z,100471.00
2022-07-26T15:02:50.407Z,100470.00
2022-07-26T15:05:19.589Z,100475.00
2022-07-26T15:07:48.183Z,100472.00
2022-07-26T15:10:16.863Z,100475.00
2022-07-26T15:12:45.037Z,100474.00
2022-07-26T15:15:12.986Z,100473.00
2022-07-26T15:17:40.904Z,100473.00
2022-07-26T15:20:09.300Z,100477.00
2022-07-26T15:22:37.133Z,100472.00
2022-07-26T15:25:05.443Z,100471.00
2022-07-26T15:27:33.791Z,100470.00
2022-07-26T15:30:07.992Z,100470.00
2022-07-26T15:32:43.428Z,100472.00
2022-07-26T15:35:14.038Z,100469.00
2022-07-26T15:37:48.726Z,100463.00
2022-07-26T15:40:16.869Z,100469.00
2022-07-26T15:42:47.593Z,100462.00
2022-07-26T15:45:17.144Z,100466.00
2022-07-26T15:47:56.251Z,100466.00
2022-07-26T15:50:27.517Z,100464.00
2022-07-26T15:52:55.686Z,100464.00
2022-07-26T15:55:23.959Z,100467.00
2022-07-26T15:57:52.057Z,100465.00
2022-07-26T16:00:20.097Z,100465.00
2022-07-26T16:02:48.297Z,100471.00
2022-07-26T16:05:16.370Z,100474.00
2022-07-26T16:07:45.275Z,100475.00
2022-07-26T16:10:14.337Z,100470.00
2022-07-26T16:12:43.247Z,100468.00
2022-07-26T16:15:11.895Z,100465.00
2022-07-26T16:17:40.074Z,100471.00
2022-07-26T16:20:08.862Z,100473.00
2022-07-26T16:22:41.258Z,100476.00
2022-07-26T16:25:12.829Z,100477.00
2022-07-26T16:27:44.737Z,100471.00
2022-07-26T16:30:14.107Z,100470.00
2022-07-26T16:32:42.758Z,100476.00
2022-07-26T16:35:12.202Z,100478.00
2022-07-26T16:37:41.655Z,100476.00
2022-07-26T16:40:10.249Z,100476.00
2022-07-26T16:42:38.450Z,100482.00
2022-07-26T16:45:09.483Z,100484.00
2022-07-26T16:47:37.427Z,100481.00
2022-07-26T16:50:06.213Z,100482.00
2022-07-26T16:52:34.305Z,100477.00
2022-07-26T16:55:04.225Z,100477.00
2022-07-26T16:57:31.998Z,100483.00
2022-07-26T17:00:00.151Z,100478.00
2022-07-26T17:02:28.727Z,100480.00
2022-07-26T17:04:58.713Z,100486.00
2022-07-26T17:07:26.823Z,100491.00
2022-07-26T17:09:55.953Z,100493.00
2022-07-26T17:12:24.655Z,100488.00
2022-07-26T17:14:54.845Z,100478.00
2022-07-26T17:17:22.833Z,100486.00
2022-07-26T17:19:50.962Z,100488.00
2022-07-26T17:22:19.543Z,100493.00
2022-07-26T17:24:48.392Z,100491.00
2022-07-26T17:27:19.628Z,100495.00
2022-07-26T17:29:47.783Z,100495.00
2022-07-26T17:32:15.987Z,100497.00
2022-07-26T17:34:43.974Z,100501.00
2022-07-26T17:37:12.504Z,100503.00
2022-07-26T17:39:52.460Z,100505.00
2022-07-26T17:42:21.605Z,100498.00
2022-07-26T17:44:50.427Z,100503.00
2022-07-26T17:47:29.418Z,100507.00
2022-07-26T17:50:34.109Z,100504.00
2022-07-26T17:52:54.438Z,100506.00
2022-07-26T17:55:22.708Z,100501.00
2022-07-26T17:57:51.062Z,100508.00
2022-07-26T18:00:21.114Z,100508.00
2022-07-26T18:02:49.560Z,100512.00
2022-07-26T18:05:19.361Z,100515.00
2022-07-26T18:07:47.435Z,100516.00
2022-07-26T18:10:15.476Z,100517.00
2022-07-26T18:12:44.620Z,100513.00
2022-07-26T18:15:12.852Z,100516.00
2022-07-26T18:17:40.909Z,100516.00
2022-07-26T18:20:09.384Z,100520.00
2022-07-26T18:22:37.267Z,100521.00
2022-07-26T18:25:06.156Z,100516.00
2022-07-26T18:27:34.378Z,100518.00
2022-07-26T18:30:02.366Z,100522.00
2022-07-26T18:32:30.705Z,100520.00
2022-07-26T18:34:58.895Z,100531.00
2022-07-26T18:37:27.295Z,100526.00
2022-07-26T18:39:57.763Z,100530.00
2022-07-26T18:42:26.545Z,100535.00
2022-07-26T18:44:54.806Z,100535.00
2022-07-26T18:47:23.019Z,100537.00
2022-07-26T18:50:46.782Z,100538.00
2022-07-26T18:53:14.746Z,100541.00
2022-07-26T18:55:42.742Z,100542.00
2022-07-26T18:58:10.721Z,100543.00
2022-07-26T19:00:38.924Z,100544.00
2022-07-26T19:03:07.139Z,100549.00
2022-07-26T19:05:35.822Z,100546.00
2022-07-26T19:08:04.917Z,100548.00
2022-07-26T19:10:33.000Z,100551.00
2022-07-26T19:13:01.145Z,100548.00
2022-07-26T19:15:29.995Z,100544.00
2022-07-26T19:17:58.468Z,100542.00
2022-07-26T19:20:26.819Z,100547.00
2022-07-26T19:22:54.697Z,100550.00
2022-07-26T19:25:22.594Z,100545.00
2022-07-26T19:27:50.438Z,100547.00
2022-07-26T19:30:18.426Z,100550.00
2022-07-26T19:32:46.376Z,100559.00
2022-07-26T19:35:17.550Z,100556.00
2022-07-26T19:37:46.132Z,100563.00
2022-07-26T19:40:14.302Z,100562.00
2022-07-26T19:42:43.735Z,100557.00
2022-07-26T19:45:12.479Z,100568.00
2022-07-26T19:47:40.826Z,100569.00
2022-07-26T19:50:10.188Z,100567.00
2022-07-26T19:52:38.116Z,100565.00
2022-07-26T19:55:06.714Z,100564.00
2022-07-26T19:57:34.785Z,100568.00
2022-07-26T20:00:04.635Z,100572.00
2022-07-26T20:02:41.280Z,100581.00
2022-07-26T20:05:11.617Z,100577.00
2022-07-26T20:07:39.643Z,100573.00
2022-07-26T20:10:08.271Z,100574.00
2022-07-26T20:12:37.986Z,100577.00
2022-07-26T20:15:07.527Z,100582.00
2022-07-26T20:17:35.924Z,100588.00
2022-07-26T20:20:04.469Z,100577.00
2022-07-26T20:22:32.315Z,100568.00
2022-07-26T20:25:00.272Z,100575.00
2022-07-26T20:27:28.296Z,100578.00
2022-07-26T20:30:00.725Z,100579.00
2022-07-26T20:32:29.280Z,100586.00
2022-07-26T20:34:59.088Z,100592.00
2022-07-26T20:37:26.960Z,100600.00
2022-07-26T20:39:55.559Z,100583.00
2022-07-26T20:42:25.575Z,100588.00
2022-07-26T20:44:53.687Z,100588.00
2022-07-26T20:47:22.526Z,100589.00
2022-07-26T20:49:50.455Z,100596.00
2022-07-26T20:52:18.805Z,100600.00
2022-07-26T20:54:46.860Z,100606.00
2022-07-26T20:57:14.955Z,100602.00
2022-07-26T20:59:45.895Z,100610.00
2022-07-26T21:02:13.873Z,100610.00
2022-07-26T21:04:41.928Z,100608.00
2022-07-26T21:07:10.128Z,100614.00
2022-07-26T21:09:38.120Z,100621.00
2022-07-26T21:12:06.441Z,100623.00
2022-07-26T21:14:34.486Z,100620.00
2022-07-26T21:17:10.930Z,100627.00
2022-07-26T21:19:40.200Z,100621.00
2022-07-26T21:22:08.494Z,100618.00
2022-07-26T21:24:36.949Z,100623.00
2022-07-26T21:27:05.836Z,100628.00
2022-07-26T21:29:38.113Z,100628.00
2022-07-26T21:32:07.645Z,100638.00
2022-07-26T21:34:35.569Z,100636.00
2022-07-26T21:37:04.762Z,100642.00
2022-07-26T21:39:33.586Z,100644.00
2022-07-26T21:42:01.550Z,100649.00
2022-07-26T21:44:29.439Z,100649.00
2022-07-26T21:46:57.384Z,100642.00
2022-07-26T21:49:25.491Z,100652.00
2022-07-26T21:51:53.550Z,100658.00
2022-07-26T21:54:21.370Z,100654.00
2022-07-26T21:56:49.416Z,100652.00
2022-07-26T21:59:17.638Z,100655.00
2022-07-26T22:01:45.593Z,100660.00
2022-07-26T22:04:13.880Z,100663.00
2022-07-26T22:06:42.087Z,100670.00
2022-07-26T22:09:10.490Z,100669.00
2022-07-26T22:11:38.608Z,100677.00
2022-07-26T22:14:08.586Z,100678.00
2022-07-26T22:16:38.025Z,100671.00
2022-07-26T22:19:06.961Z,100676.00
2022-07-26T22:21:35.164Z,100670.00
2022-07-26T22:24:03.311Z,100670.00
2022-07-26T22:26:31.371Z,100672.00
2022-07-26T22:28:59.788Z,100674.00
2022-07-26T22:31:27.868Z,100671.00
2022-07-26T22:33:55.905Z,100682.00
2022-07-26T22:36:23.913Z,100680.00
2022-07-26T22:38:51.787Z,100664.00
2022-07-26T22:41:20.282Z,100671.00
2022-07-26T22:43:48.153Z,100680.00
2022-07-26T22:46:19.106Z,100683.00
2022-07-26T22:48:56.086Z,100675.00
2022-07-26T22:51:24.152Z,100680.00
2022-07-26T22:53:52.047Z,100675.00
2022-07-26T22:56:20.159Z,100687.00
2022-07-26T22:58:48.088Z,100687.00
2022-07-26T23:01:16.944Z,100678.00
2022-07-26T23:03:44.992Z,100679.00
2022-07-26T23:06:31.371Z,100674.00
2022-07-26T23:09:00.304Z,100670.00
2022-07-26T23:11:28.468Z,100665.00
2022-07-26T23:14:00.464Z,100657.00
2022-07-26T23:16:28.493Z,100664.00
2022-07-26T23:18:56.941Z,100665.00
2022-07-26T23:21:24.846Z,100669.00
2022-07-26T23:23:52.960Z,100669.00
2022-07-26T23:26:21.004Z,100661.00
2022-07-26T23:28:48.982Z,100671.00
2022-07-26T23:31:17.165Z,100683.00
2022-07-26T23:33:51.541Z,100691.00
2022-07-26T23:36:26.821Z,100691.00
2022-07-26T23:38:57.437Z,100685.00
2022-07-26T23:41:29.166Z,100684.00
2022-07-26T23:43:57.299Z,100673.00
2022-07-26T23:46:26.001Z,100670.00
2022-07-26T23:48:54.539Z,100665.00
2022-07-26T23:51:25.658Z,100677.00
2022-07-26T23:53:53.481Z,100678.00
2022-07-26T23:56:21.219Z,100677.00
2022-07-26T23:58:49.664Z,100673.00
